createdAt,value
2018-04-19T00:00:00.157Z,1031.19
2018-04-19T00:00:59.972Z,1031.2
2018-04-19T00:02:00.060Z,1031.21
2018-04-19T00:03:00.019Z,1031.2
2018-04-19T00:03:59.904Z,1031.18
2018-04-19T00:05:00.017Z,1031.16
2018-04-19T00:05:59.982Z,1031.15
2018-04-19T00:06:59.906Z,1031.17
2018-04-19T00:08:00.035Z,1031.16
2018-04-19T00:09:00.067Z,1031.15
2018-04-19T00:09:59.917Z,1031.17
2018-04-19T00:11:00.042Z,1031.15
2018-04-19T00:12:00.024Z,1031.14
2018-04-19T00:13:00.015Z,1031.12
2018-04-19T00:14:00.056Z,1031.09
2018-04-19T00:14:59.971Z,1031.13
2018-04-19T00:15:59.910Z,1031.1
2018-04-19T00:17:00.010Z,1031.12
2018-04-19T00:17:59.920Z,1031.04
2018-04-19T00:19:00.019Z,1031.09
2018-04-19T00:20:00.150Z,1031.09
2018-04-19T00:20:59.906Z,1031.06
2018-04-19T00:21:59.939Z,1031.06
2018-04-19T00:23:00.121Z,1031.07
2018-04-19T00:24:00.184Z,1031.03
2018-04-19T00:24:59.976Z,1031.05
2018-04-19T00:26:00.108Z,1031.05
2018-04-19T00:26:59.978Z,1031.05
2018-04-19T00:28:00.087Z,1031.03
2018-04-19T00:29:00.131Z,1031.09
2018-04-19T00:29:59.936Z,1031.1
2018-04-19T00:30:59.988Z,1031.09
2018-04-19T00:32:00.088Z,1031.1
2018-04-19T00:33:00.080Z,1031.06
2018-04-19T00:33:59.954Z,1031.05
2018-04-19T00:35:00.378Z,1031.06
2018-04-19T00:36:00.192Z,1031.1
2018-04-19T00:37:00.027Z,1031.07
2018-04-19T00:37:59.856Z,1031.04
2018-04-19T00:38:59.979Z,1031.02
2018-04-19T00:39:59.905Z,1031.05
2018-04-19T00:41:00.022Z,1031.04
2018-04-19T00:41:59.917Z,1031.04
2018-04-19T00:43:00.053Z,1031.05
2018-04-19T00:43:59.992Z,1031.03
2018-04-19T00:45:00.084Z,1031.01
2018-04-19T00:46:00.057Z,1031
2018-04-19T00:46:59.896Z,1030.95
2018-04-19T00:47:59.840Z,1030.94
2018-04-19T00:48:59.998Z,1030.97
2018-04-19T00:49:59.901Z,1030.97
2018-04-19T00:50:59.953Z,1030.93
2018-04-19T00:51:59.926Z,1030.98
2018-04-19T00:52:59.926Z,1030.95
2018-04-19T00:53:59.943Z,1030.92
2018-04-19T00:55:00.084Z,1030.91
2018-04-19T00:56:00.004Z,1030.9
2018-04-19T00:56:59.931Z,1030.88
2018-04-19T00:57:59.941Z,1030.82
2018-04-19T00:59:00.039Z,1030.89
2018-04-19T00:59:59.902Z,1030.87
2018-04-19T01:00:59.958Z,1030.9
2018-04-19T01:01:59.932Z,1030.9
2018-04-19T01:03:00.043Z,1030.91
2018-04-19T01:03:59.979Z,1030.87
2018-04-19T01:05:00.072Z,1030.88
2018-04-19T01:05:59.965Z,1030.87
2018-04-19T01:06:59.845Z,1030.84
2018-04-19T01:07:59.919Z,1030.85
2018-04-19T01:08:59.961Z,1030.84
2018-04-19T01:09:59.976Z,1030.83
2018-04-19T01:11:00.031Z,1030.82
2018-04-19T01:11:59.997Z,1030.79
2018-04-19T01:12:59.931Z,1030.79
2018-04-19T01:14:00.064Z,1030.78
2018-04-19T01:15:00.028Z,1030.78
2018-04-19T01:15:59.991Z,1030.79
2018-04-19T01:16:59.861Z,1030.81
2018-04-19T01:17:59.848Z,1030.79
2018-04-19T01:18:59.866Z,1030.78
2018-04-19T01:19:59.935Z,1030.76
2018-04-19T01:20:59.902Z,1030.75
2018-04-19T01:21:59.928Z,1030.76
2018-04-19T01:23:00.032Z,1030.74
2018-04-19T01:23:59.939Z,1030.76
2018-04-19T01:25:00.109Z,1030.75
2018-04-19T01:25:59.864Z,1030.78
2018-04-19T01:27:00.069Z,1030.78
2018-04-19T01:27:59.940Z,1030.75
2018-04-19T01:29:00.025Z,1030.79
2018-04-19T01:29:59.921Z,1030.74
2018-04-19T01:30:59.992Z,1030.77
2018-04-19T01:31:59.890Z,1030.77
2018-04-19T01:33:00.112Z,1030.77
2018-04-19T01:34:00.070Z,1030.77
2018-04-19T01:34:59.899Z,1030.74
2018-04-19T01:36:00.137Z,1030.77
2018-04-19T01:36:59.952Z,1030.77
2018-04-19T01:37:59.977Z,1030.76
2018-04-19T01:39:00.147Z,1030.76
2018-04-19T01:40:00.164Z,1030.79
2018-04-19T01:40:59.967Z,1030.78
2018-04-19T01:41:59.980Z,1030.8
2018-04-19T01:43:00.000Z,1030.79
2018-04-19T01:43:59.957Z,1030.77
2018-04-19T01:44:59.850Z,1030.75
2018-04-19T01:46:00.056Z,1030.82
2018-04-19T01:46:59.927Z,1030.79
2018-04-19T01:47:59.863Z,1030.77
2018-04-19T01:48:59.969Z,1030.8
2018-04-19T01:50:00.067Z,1030.79
2018-04-19T01:51:00.065Z,1030.8
2018-04-19T01:51:59.970Z,1030.8
2018-04-19T01:53:00.005Z,1030.81
2018-04-19T01:53:59.933Z,1030.79
2018-04-19T01:54:59.885Z,1030.84
2018-04-19T01:56:00.063Z,1030.87
2018-04-19T01:56:59.930Z,1030.84
2018-04-19T01:58:00.088Z,1030.87
2018-04-19T01:58:59.949Z,1030.88
2018-04-19T02:00:00.091Z,1030.91
2018-04-19T02:00:59.976Z,1030.9
2018-04-19T02:02:00.016Z,1030.91
2018-04-19T02:02:59.899Z,1030.92
2018-04-19T02:04:02.100Z,1030.89
2018-04-19T02:05:00.143Z,1030.87
2018-04-19T02:06:00.159Z,1030.9
2018-04-19T02:07:00.074Z,1030.91
2018-04-19T02:08:00.102Z,1030.88
2018-04-19T02:08:59.904Z,1030.86
2018-04-19T02:09:59.878Z,1030.86
2018-04-19T02:11:00.050Z,1030.87
2018-04-19T02:12:00.033Z,1030.84
2018-04-19T02:13:00.035Z,1030.88
2018-04-19T02:14:00.018Z,1030.84
2018-04-19T02:14:59.984Z,1030.85
2018-04-19T02:16:00.040Z,1030.88
2018-04-19T02:16:59.844Z,1030.83
2018-04-19T02:18:00.065Z,1030.89
2018-04-19T02:18:59.940Z,1030.84
2018-04-19T02:19:59.944Z,1030.82
2018-04-19T02:20:59.900Z,1030.82
2018-04-19T02:22:00.042Z,1030.82
2018-04-19T02:22:59.816Z,1030.79
2018-04-19T02:23:59.976Z,1030.79
2018-04-19T02:24:59.875Z,1030.81
2018-04-19T02:25:59.856Z,1030.79
2018-04-19T02:26:59.949Z,1030.77
2018-04-19T02:27:59.939Z,1030.76
2018-04-19T02:28:59.987Z,1030.76
2018-04-19T02:30:00.047Z,1030.76
2018-04-19T02:31:00.106Z,1030.75
2018-04-19T02:32:00.168Z,1030.75
2018-04-19T02:33:00.086Z,1030.73
2018-04-19T02:34:00.045Z,1030.74
2018-04-19T02:35:00.075Z,1030.74
2018-04-19T02:36:01.551Z,1030.75
2018-04-19T02:36:59.937Z,1030.73
2018-04-19T02:37:59.995Z,1030.71
2018-04-19T02:38:59.936Z,1030.74
2018-04-19T02:40:00.020Z,1030.74
2018-04-19T02:40:59.856Z,1030.72
2018-04-19T02:41:59.906Z,1030.74
2018-04-19T02:43:00.058Z,1030.72
2018-04-19T02:44:00.040Z,1030.74
2018-04-19T02:44:59.813Z,1030.72
2018-04-19T02:46:00.044Z,1030.74
2018-04-19T02:47:00.010Z,1030.75
2018-04-19T02:48:00.012Z,1030.72
2018-04-19T02:49:00.863Z,1030.75
2018-04-19T02:50:00.068Z,1030.72
2018-04-19T02:50:59.940Z,1030.72
2018-04-19T02:51:59.957Z,1030.65
2018-04-19T02:52:59.893Z,1030.73
2018-04-19T02:54:00.109Z,1030.7
2018-04-19T02:55:00.073Z,1030.72
2018-04-19T02:55:59.952Z,1030.68
2018-04-19T02:56:59.929Z,1030.68
2018-04-19T02:57:59.986Z,1030.67
2018-04-19T02:58:59.979Z,1030.64
2018-04-19T02:59:59.863Z,1030.64
2018-04-19T03:00:59.956Z,1030.66
2018-04-19T03:01:59.852Z,1030.65
2018-04-19T03:03:00.033Z,1030.63
2018-04-19T03:04:00.035Z,1030.7
2018-04-19T03:04:59.995Z,1030.67
2018-04-19T03:05:59.998Z,1030.66
2018-04-19T03:06:59.984Z,1030.65
2018-04-19T03:08:00.121Z,1030.63
2018-04-19T03:09:00.105Z,1030.66
2018-04-19T03:09:59.836Z,1030.68
2018-04-19T03:10:59.888Z,1030.68
2018-04-19T03:11:59.996Z,1030.66
2018-04-19T03:13:00.042Z,1030.65
2018-04-19T03:14:00.168Z,1030.66
2018-04-19T03:14:59.838Z,1030.67
2018-04-19T03:16:02.597Z,1030.65
2018-04-19T03:16:59.986Z,1030.63
2018-04-19T03:17:59.891Z,1030.66
2018-04-19T03:19:00.067Z,1030.6
2018-04-19T03:19:59.943Z,1030.63
2018-04-19T03:20:59.829Z,1030.61
2018-04-19T03:21:59.830Z,1030.63
2018-04-19T03:23:00.090Z,1030.63
2018-04-19T03:23:59.873Z,1030.66
2018-04-19T03:24:59.952Z,1030.67
2018-04-19T03:25:59.948Z,1030.68
2018-04-19T03:26:59.938Z,1030.66
2018-04-19T03:27:59.851Z,1030.65
2018-04-19T03:29:00.218Z,1030.64
2018-04-19T03:29:59.932Z,1030.65
2018-04-19T03:31:00.062Z,1030.6
2018-04-19T03:32:00.032Z,1030.69
2018-04-19T03:33:00.077Z,1030.69
2018-04-19T03:33:59.935Z,1030.62
2018-04-19T03:34:59.870Z,1030.58
2018-04-19T03:35:59.904Z,1030.64
2018-04-19T03:37:00.045Z,1030.62
2018-04-19T03:38:00.090Z,1030.64
2018-04-19T03:38:59.929Z,1030.59
2018-04-19T03:39:59.847Z,1030.66
2018-04-19T03:41:00.118Z,1030.62
2018-04-19T03:41:59.920Z,1030.6
2018-04-19T03:43:00.012Z,1030.62
2018-04-19T03:43:59.912Z,1030.62
2018-04-19T03:44:59.942Z,1030.64
2018-04-19T03:45:59.892Z,1030.64
2018-04-19T03:46:59.915Z,1030.61
2018-04-19T03:47:59.820Z,1030.61
2018-04-19T03:48:59.941Z,1030.62
2018-04-19T03:49:59.974Z,1030.62
2018-04-19T03:51:00.111Z,1030.62
2018-04-19T03:51:59.942Z,1030.63
2018-04-19T03:52:59.879Z,1030.69
2018-04-19T03:53:59.816Z,1030.66
2018-04-19T03:54:59.920Z,1030.65
2018-04-19T03:56:00.061Z,1030.63
2018-04-19T03:56:59.984Z,1030.6
2018-04-19T03:57:59.994Z,1030.61
2018-04-19T03:58:59.798Z,1030.63
2018-04-19T03:59:59.865Z,1030.6
2018-04-19T04:01:00.009Z,1030.61
2018-04-19T04:01:59.972Z,1030.57
2018-04-19T04:02:59.993Z,1030.6
2018-04-19T04:03:59.855Z,1030.58
2018-04-19T04:04:59.981Z,1030.61
2018-04-19T04:05:59.980Z,1030.58
2018-04-19T04:06:59.931Z,1030.57
2018-04-19T04:08:00.015Z,1030.59
2018-04-19T04:08:59.883Z,1030.6
2018-04-19T04:09:59.857Z,1030.58
2018-04-19T04:10:59.971Z,1030.64
2018-04-19T04:12:00.007Z,1030.6
2018-04-19T04:13:00.056Z,1030.61
2018-04-19T04:13:59.953Z,1030.62
2018-04-19T04:14:59.951Z,1030.6
2018-04-19T04:15:59.970Z,1030.6
2018-04-19T04:16:59.917Z,1030.58
2018-04-19T04:17:59.782Z,1030.6
2018-04-19T04:18:59.885Z,1030.6
2018-04-19T04:19:59.975Z,1030.6
2018-04-19T04:21:00.005Z,1030.58
2018-04-19T04:21:59.928Z,1030.6
2018-04-19T04:22:59.940Z,1030.59
2018-04-19T04:23:59.987Z,1030.57
2018-04-19T04:25:00.022Z,1030.58
2018-04-19T04:25:59.874Z,1030.59
2018-04-19T04:26:59.999Z,1030.59
2018-04-19T04:27:59.965Z,1030.58
2018-04-19T04:28:59.794Z,1030.59
2018-04-19T04:29:59.837Z,1030.6
2018-04-19T04:31:00.138Z,1030.57
2018-04-19T04:32:00.014Z,1030.58
2018-04-19T04:32:59.781Z,1030.59
2018-04-19T04:33:59.810Z,1030.63
2018-04-19T04:34:59.897Z,1030.62
2018-04-19T04:35:59.900Z,1030.63
2018-04-19T04:36:59.803Z,1030.6
2018-04-19T04:37:59.877Z,1030.61
2018-04-19T04:38:59.836Z,1030.61
2018-04-19T04:39:59.964Z,1030.6
2018-04-19T04:40:59.997Z,1030.61
2018-04-19T04:41:59.948Z,1030.69
2018-04-19T04:43:00.036Z,1030.7
2018-04-19T04:44:00.054Z,1030.69
2018-04-19T04:44:59.823Z,1030.71
2018-04-19T04:45:59.973Z,1030.71
2018-04-19T04:46:59.782Z,1030.73
2018-04-19T04:47:59.976Z,1030.71
2018-04-19T04:48:59.839Z,1030.67
2018-04-19T04:50:00.000Z,1030.7
2018-04-19T04:50:59.906Z,1030.74
2018-04-19T04:51:59.917Z,1030.76
2018-04-19T04:52:59.901Z,1030.72
2018-04-19T04:53:59.985Z,1030.71
2018-04-19T04:55:00.007Z,1030.71
2018-04-19T04:55:59.896Z,1030.66
2018-04-19T04:57:00.023Z,1030.74
2018-04-19T04:57:59.885Z,1030.7
2018-04-19T04:58:59.950Z,1030.71
2018-04-19T04:59:59.911Z,1030.73
2018-04-19T05:00:59.844Z,1030.7
2018-04-19T05:02:00.001Z,1030.75
2018-04-19T05:02:59.903Z,1030.73
2018-04-19T05:03:59.913Z,1030.78
2018-04-19T05:05:00.028Z,1030.75
2018-04-19T05:05:59.831Z,1030.8
2018-04-19T05:06:59.810Z,1030.76
2018-04-19T05:07:59.849Z,1030.77
2018-04-19T05:08:59.940Z,1030.77
2018-04-19T05:10:00.098Z,1030.79
2018-04-19T05:11:00.039Z,1030.79
2018-04-19T05:11:59.993Z,1030.82
2018-04-19T05:13:00.031Z,1030.83
2018-04-19T05:13:59.774Z,1030.83
2018-04-19T05:14:59.795Z,1030.89
2018-04-19T05:16:00.018Z,1030.87
2018-04-19T05:17:00.016Z,1030.91
2018-04-19T05:17:59.889Z,1030.9
2018-04-19T05:19:00.042Z,1030.91
2018-04-19T05:19:59.769Z,1030.91
2018-04-19T05:20:59.983Z,1030.92
2018-04-19T05:21:59.958Z,1030.93
2018-04-19T05:22:59.997Z,1030.92
2018-04-19T05:23:59.865Z,1030.97
2018-04-19T05:24:59.971Z,1030.9
2018-04-19T05:26:00.034Z,1030.88
2018-04-19T05:26:59.978Z,1030.91
2018-04-19T05:27:59.859Z,1030.96
2018-04-19T05:28:59.934Z,1030.96
2018-04-19T05:29:59.969Z,1030.92
2018-04-19T05:30:59.905Z,1030.96
2018-04-19T05:31:59.970Z,1030.96
2018-04-19T05:32:59.919Z,1030.94
2018-04-19T05:33:59.807Z,1030.93
2018-04-19T05:34:59.801Z,1030.99
2018-04-19T05:35:59.815Z,1030.95
2018-04-19T05:36:59.838Z,1031.01
2018-04-19T05:37:59.924Z,1030.98
2018-04-19T05:38:59.950Z,1031
2018-04-19T05:39:59.925Z,1030.97
2018-04-19T05:41:00.021Z,1030.99
2018-04-19T05:42:00.073Z,1030.99
2018-04-19T05:42:59.994Z,1030.99
2018-04-19T05:43:59.939Z,1030.97
2018-04-19T05:44:59.769Z,1030.95
2018-04-19T05:45:59.979Z,1030.95
2018-04-19T05:46:59.883Z,1030.99
2018-04-19T05:47:59.950Z,1030.98
2018-04-19T05:48:59.957Z,1031.01
2018-04-19T05:49:59.805Z,1031.03
2018-04-19T05:50:59.861Z,1031.03
2018-04-19T05:52:00.096Z,1031.06
2018-04-19T05:52:59.741Z,1031.08
2018-04-19T05:53:59.888Z,1031.08
2018-04-19T05:54:59.911Z,1031.07
2018-04-19T05:55:59.995Z,1031.11
2018-04-19T05:57:00.121Z,1031.09
2018-04-19T05:57:59.913Z,1031.14
2018-04-19T05:58:59.984Z,1031.12
2018-04-19T05:59:59.856Z,1031.19
2018-04-19T06:00:59.982Z,1031.13
2018-04-19T06:01:59.842Z,1031.15
2018-04-19T06:02:59.931Z,1031.14
2018-04-19T06:03:59.920Z,1031.12
2018-04-19T06:04:59.942Z,1031.13
2018-04-19T06:05:59.932Z,1031.16
2018-04-19T06:06:59.831Z,1031.14
2018-04-19T06:08:00.043Z,1031.15
2018-04-19T06:08:59.967Z,1031.15
2018-04-19T06:09:59.965Z,1031.11
2018-04-19T06:10:59.986Z,1031.16
2018-04-19T06:11:59.799Z,1031.19
2018-04-19T06:12:59.942Z,1031.17
2018-04-19T06:13:59.949Z,1031.17
2018-04-19T06:14:59.960Z,1031.17
2018-04-19T06:15:59.852Z,1031.18
2018-04-19T06:17:00.061Z,1031.18
2018-04-19T06:17:59.916Z,1031.18
2018-04-19T06:18:59.965Z,1031.22
2018-04-19T06:19:59.846Z,1031.15
2018-04-19T06:21:00.028Z,1031.18
2018-04-19T06:21:59.788Z,1031.16
2018-04-19T06:22:59.953Z,1031.18
2018-04-19T06:24:00.040Z,1031.15
2018-04-19T06:24:59.997Z,1031.16
2018-04-19T06:25:59.997Z,1031.18
2018-04-19T06:27:00.075Z,1031.15
2018-04-19T06:27:59.868Z,1031.16
2018-04-19T06:28:59.917Z,1031.08
2018-04-19T06:29:59.907Z,1031.17
2018-04-19T06:30:59.838Z,1031.16
2018-04-19T06:32:00.104Z,1031.16
2018-04-19T06:32:59.949Z,1031.12
2018-04-19T06:34:00.031Z,1031.17
2018-04-19T06:34:59.777Z,1031.19
2018-04-19T06:36:00.074Z,1031.15
2018-04-19T06:36:59.921Z,1031.12
2018-04-19T06:37:59.859Z,1031.13
2018-04-19T06:38:59.843Z,1031.13
2018-04-19T06:39:59.852Z,1031.11
2018-04-19T06:40:59.962Z,1031.09
2018-04-19T06:41:59.774Z,1031.08
2018-04-19T06:42:59.925Z,1031.12
2018-04-19T06:43:59.917Z,1031.11
2018-04-19T06:44:59.829Z,1031.1
2018-04-19T06:45:59.902Z,1031.06
2018-04-19T06:46:59.834Z,1031.11
2018-04-19T06:47:59.814Z,1031.1
2018-04-19T06:48:59.945Z,1031.13
2018-04-19T06:50:01.757Z,1031.08
2018-04-19T06:50:59.777Z,1031.13
2018-04-19T06:51:59.943Z,1031.12
2018-04-19T06:52:59.762Z,1031.11
2018-04-19T06:53:59.813Z,1031.15
2018-04-19T06:54:59.966Z,1031.11
2018-04-19T06:55:59.862Z,1031.15
2018-04-19T06:56:59.950Z,1031.12
2018-04-19T06:57:59.964Z,1031.08
2018-04-19T06:58:59.863Z,1031.06
2018-04-19T06:59:59.858Z,1031.11
2018-04-19T07:00:59.964Z,1031.13
2018-04-19T07:01:59.785Z,1031.09
2018-04-19T07:02:59.726Z,1031.11
2018-04-19T07:03:59.884Z,1031.12
2018-04-19T07:04:59.901Z,1031.07
2018-04-19T07:05:59.970Z,1031.07
2018-04-19T07:06:59.997Z,1031.08
2018-04-19T07:07:59.999Z,1031.04
2018-04-19T07:08:59.872Z,1031.06
2018-04-19T07:09:59.816Z,1031.07
2018-04-19T07:10:59.809Z,1031.07
2018-04-19T07:11:59.830Z,1031.09
2018-04-19T07:12:59.809Z,1031.09
2018-04-19T07:13:59.944Z,1031.05
2018-04-19T07:14:59.873Z,1031.07
2018-04-19T07:15:59.926Z,1031.04
2018-04-19T07:16:59.912Z,1031.07
2018-04-19T07:17:59.996Z,1031.06
2018-04-19T07:19:00.069Z,1031.08
2018-04-19T07:19:59.727Z,1031.08
2018-04-19T07:20:59.793Z,1031.09
2018-04-19T07:21:59.822Z,1031.06
2018-04-19T07:22:59.925Z,1031.12
2018-04-19T07:23:59.994Z,1031.09
2018-04-19T07:24:59.950Z,1031.07
2018-04-19T07:25:59.742Z,1031.11
2018-04-19T07:26:59.993Z,1031.1
2018-04-19T07:27:59.960Z,1031.08
2018-04-19T07:29:00.005Z,1031.09
2018-04-19T07:29:59.900Z,1031.1
2018-04-19T07:30:59.854Z,1031.1
2018-04-19T07:32:00.001Z,1031.07
2018-04-19T07:32:59.726Z,1031.09
2018-04-19T07:33:59.757Z,1031.07
2018-04-19T07:34:59.915Z,1031.07
2018-04-19T07:35:59.766Z,1031.06
2018-04-19T07:36:59.911Z,1031.02
2018-04-19T07:37:59.896Z,1031.08
2018-04-19T07:39:00.051Z,1031.06
2018-04-19T07:39:59.924Z,1031.08
2018-04-19T07:41:01.750Z,1031.06
2018-04-19T07:41:59.960Z,1031.06
2018-04-19T07:43:00.027Z,1031.05
2018-04-19T07:44:00.069Z,1031.04
2018-04-19T07:44:59.915Z,1031.09
2018-04-19T07:45:59.890Z,1031.05
2018-04-19T07:46:59.914Z,1031.08
2018-04-19T07:47:59.913Z,1031.06
2018-04-19T07:48:59.963Z,1031.07
2018-04-19T07:49:59.898Z,1031.06
2018-04-19T07:50:59.828Z,1031.03
2018-04-19T07:51:59.942Z,1031.06
2018-04-19T07:52:59.911Z,1031.06
2018-04-19T07:53:59.725Z,1031.03
2018-04-19T07:54:59.795Z,1031.01
2018-04-19T07:55:59.780Z,1031.01
2018-04-19T07:56:59.814Z,1030.98
2018-04-19T07:57:59.896Z,1030.95
2018-04-19T07:58:59.912Z,1030.95
2018-04-19T07:59:59.745Z,1030.96
2018-04-19T08:00:59.863Z,1031.01
2018-04-19T08:01:59.904Z,1030.97
2018-04-19T08:02:59.736Z,1030.98
2018-04-19T08:03:59.997Z,1030.95
2018-04-19T08:04:59.792Z,1030.93
2018-04-19T08:05:59.822Z,1030.97
2018-04-19T08:06:59.966Z,1030.99
2018-04-19T08:07:59.780Z,1031
2018-04-19T08:08:59.864Z,1030.95
2018-04-19T08:09:59.875Z,1031
2018-04-19T08:10:59.810Z,1030.99
2018-04-19T08:11:59.815Z,1030.95
2018-04-19T08:12:59.710Z,1030.97
2018-04-19T08:13:59.838Z,1030.95
2018-04-19T08:15:01.049Z,1030.97
2018-04-19T08:15:59.934Z,1030.96
2018-04-19T08:16:59.949Z,1030.93
2018-04-19T08:17:59.826Z,1030.94
2018-04-19T08:18:59.947Z,1030.92
2018-04-19T08:19:59.757Z,1030.96
2018-04-19T08:21:00.051Z,1030.94
2018-04-19T08:21:59.845Z,1030.94
2018-04-19T08:22:59.781Z,1030.95
2018-04-19T08:23:59.946Z,1030.96
2018-04-19T08:24:59.737Z,1030.92
2018-04-19T08:25:59.991Z,1030.91
2018-04-19T08:27:00.012Z,1030.94
2018-04-19T08:27:59.987Z,1030.94
2018-04-19T08:28:59.790Z,1030.95
2018-04-19T08:29:59.885Z,1030.97
2018-04-19T08:30:59.863Z,1030.96
2018-04-19T08:31:59.720Z,1030.96
2018-04-19T08:32:59.887Z,1030.98
2018-04-19T08:33:59.831Z,1030.96
2018-04-19T08:34:59.850Z,1030.96
2018-04-19T08:35:59.936Z,1030.96
2018-04-19T08:36:59.855Z,1030.99
2018-04-19T08:37:59.832Z,1031
2018-04-19T08:38:59.991Z,1031.01
2018-04-19T08:39:59.716Z,1030.95
2018-04-19T08:40:59.743Z,1030.99
2018-04-19T08:41:59.794Z,1030.96
2018-04-19T08:42:59.736Z,1030.98
2018-04-19T08:43:59.907Z,1030.98
2018-04-19T08:44:59.800Z,1030.99
2018-04-19T08:45:59.822Z,1030.93
2018-04-19T08:46:59.969Z,1030.94
2018-04-19T08:47:59.834Z,1030.91
2018-04-19T08:49:00.005Z,1030.95
2018-04-19T08:49:59.877Z,1030.97
2018-04-19T08:50:59.720Z,1030.95
2018-04-19T08:51:59.952Z,1030.96
2018-04-19T08:52:59.946Z,1030.93
2018-04-19T08:53:59.896Z,1030.97
2018-04-19T08:54:59.818Z,1030.98
2018-04-19T08:55:59.791Z,1030.95
2018-04-19T08:56:59.883Z,1030.92
2018-04-19T08:57:59.748Z,1030.96
2018-04-19T08:58:59.843Z,1030.96
2018-04-19T08:59:59.832Z,1030.88
2018-04-19T09:00:59.804Z,1030.93
2018-04-19T09:01:59.923Z,1030.94
2018-04-19T09:02:59.899Z,1030.94
2018-04-19T09:03:59.787Z,1030.91
2018-04-19T09:04:59.940Z,1030.91
2018-04-19T09:05:59.785Z,1030.91
2018-04-19T09:06:59.797Z,1030.89
2018-04-19T09:08:00.096Z,1030.87
2018-04-19T09:08:59.826Z,1030.93
2018-04-19T09:09:59.725Z,1030.93
2018-04-19T09:10:59.902Z,1030.98
2018-04-19T09:11:59.872Z,1030.95
2018-04-19T09:12:59.938Z,1030.94
2018-04-19T09:13:59.988Z,1030.93
2018-04-19T09:14:59.792Z,1030.91
2018-04-19T09:15:59.850Z,1030.9
2018-04-19T09:16:59.705Z,1030.92
2018-04-19T09:18:00.055Z,1030.94
2018-04-19T09:18:59.933Z,1030.91
2018-04-19T09:20:00.383Z,1030.91
2018-04-19T09:20:59.687Z,1030.87
2018-04-19T09:21:59.958Z,1030.89
2018-04-19T09:22:59.712Z,1030.83
2018-04-19T09:23:59.818Z,1030.87
2018-04-19T09:24:59.963Z,1030.84
2018-04-19T09:25:59.851Z,1030.83
2018-04-19T09:26:59.885Z,1030.81
2018-04-19T09:27:59.995Z,1030.83
2018-04-19T09:28:59.723Z,1030.85
2018-04-19T09:29:59.913Z,1030.84
2018-04-19T09:31:00.032Z,1030.82
2018-04-19T09:31:59.974Z,1030.78
2018-04-19T09:32:59.819Z,1030.79
2018-04-19T09:33:59.937Z,1030.81
2018-04-19T09:34:59.959Z,1030.76
2018-04-19T09:35:59.971Z,1030.76
2018-04-19T09:36:59.899Z,1030.8
2018-04-19T09:37:59.845Z,1030.82
2018-04-19T09:38:59.771Z,1030.81
2018-04-19T09:40:00.039Z,1030.78
2018-04-19T09:41:00.510Z,1030.83
2018-04-19T09:42:00.851Z,1030.81
2018-04-19T09:42:59.886Z,1030.82
2018-04-19T09:43:59.963Z,1030.82
2018-04-19T09:45:00.027Z,1030.83
2018-04-19T09:45:59.808Z,1030.84
2018-04-19T09:46:59.762Z,1030.85
2018-04-19T09:47:59.776Z,1030.85
2018-04-19T09:48:59.945Z,1030.76
2018-04-19T09:50:00.021Z,1030.76
2018-04-19T09:51:00.010Z,1030.82
2018-04-19T09:51:59.810Z,1030.8
2018-04-19T09:52:59.839Z,1030.73
2018-04-19T09:54:00.379Z,1030.74
2018-04-19T09:55:00.028Z,1030.7
2018-04-19T09:55:59.869Z,1030.75
2018-04-19T09:57:00.022Z,1030.71
2018-04-19T09:58:02.672Z,1030.74
2018-04-19T09:58:59.950Z,1030.68
2018-04-19T09:59:59.716Z,1030.73
2018-04-19T10:00:59.696Z,1030.69
2018-04-19T10:01:59.943Z,1030.69
2018-04-19T10:02:59.779Z,1030.7
2018-04-19T10:03:59.777Z,1030.7
2018-04-19T10:04:59.909Z,1030.72
2018-04-19T10:05:59.709Z,1030.72
2018-04-19T10:06:59.802Z,1030.69
2018-04-19T10:08:00.091Z,1030.69
2018-04-19T10:08:59.885Z,1030.68
2018-04-19T10:09:59.785Z,1030.67
2018-04-19T10:10:59.691Z,1030.62
2018-04-19T10:11:59.797Z,1030.65
2018-04-19T10:12:59.879Z,1030.62
2018-04-19T10:13:59.871Z,1030.62
2018-04-19T10:14:59.955Z,1030.61
2018-04-19T10:16:00.155Z,1030.63
2018-04-19T10:16:59.661Z,1030.6
2018-04-19T10:17:59.806Z,1030.58
2018-04-19T10:18:59.660Z,1030.57
2018-04-19T10:20:00.001Z,1030.53
2018-04-19T10:20:59.858Z,1030.59
2018-04-19T10:21:59.922Z,1030.57
2018-04-19T10:22:59.860Z,1030.57
2018-04-19T10:23:59.789Z,1030.61
2018-04-19T10:24:59.883Z,1030.57
2018-04-19T10:25:59.720Z,1030.55
2018-04-19T10:26:59.821Z,1030.55
2018-04-19T10:27:59.852Z,1030.53
2018-04-19T10:28:59.753Z,1030.55
2018-04-19T10:29:59.977Z,1030.57
2018-04-19T10:30:59.917Z,1030.53
2018-04-19T10:31:59.945Z,1030.52
2018-04-19T10:33:00.953Z,1030.52
2018-04-19T10:33:59.956Z,1030.52
2018-04-19T10:35:00.006Z,1030.46
2018-04-19T10:35:59.750Z,1030.46
2018-04-19T10:36:59.788Z,1030.49
2018-04-19T10:37:59.876Z,1030.43
2018-04-19T10:38:59.905Z,1030.47
2018-04-19T10:39:59.925Z,1030.46
2018-04-19T10:40:59.963Z,1030.5
2018-04-19T10:41:59.868Z,1030.44
2018-04-19T10:42:59.841Z,1030.47
2018-04-19T10:43:59.823Z,1030.42
2018-04-19T10:44:59.912Z,1030.44
2018-04-19T10:45:59.955Z,1030.4
2018-04-19T10:46:59.961Z,1030.38
2018-04-19T10:48:01.092Z,1030.33
2018-04-19T10:48:59.795Z,1030.33
2018-04-19T10:49:59.909Z,1030.36
2018-04-19T10:50:59.926Z,1030.34
2018-04-19T10:51:59.768Z,1030.32
2018-04-19T10:53:00.019Z,1030.31
2018-04-19T10:53:59.903Z,1030.33
2018-04-19T10:54:59.927Z,1030.35
2018-04-19T10:55:59.830Z,1030.29
2018-04-19T10:56:59.804Z,1030.29
2018-04-19T10:57:59.964Z,1030.27
2018-04-19T10:58:59.955Z,1030.3
2018-04-19T10:59:59.957Z,1030.24
2018-04-19T11:01:00.142Z,1030.21
2018-04-19T11:01:59.941Z,1030.22
2018-04-19T11:02:59.896Z,1030.22
2018-04-19T11:03:59.962Z,1030.21
2018-04-19T11:04:59.839Z,1030.2
2018-04-19T11:06:00.820Z,1030.2
2018-04-19T11:06:59.932Z,1030.18
2018-04-19T11:08:00.106Z,1030.17
2018-04-19T11:09:00.736Z,1030.18
2018-04-19T11:09:59.767Z,1030.16
2018-04-19T11:10:59.785Z,1030.15
2018-04-19T11:11:59.878Z,1030.16
2018-04-19T11:12:59.750Z,1030.14
2018-04-19T11:13:59.883Z,1030.14
2018-04-19T11:14:59.877Z,1030.12
2018-04-19T11:15:59.984Z,1030.09
2018-04-19T11:16:59.699Z,1030.12
2018-04-19T11:18:00.825Z,1030.1
2018-04-19T11:18:59.946Z,1030.1
2018-04-19T11:19:59.904Z,1030.07
2018-04-19T11:20:59.933Z,1030.04
2018-04-19T11:21:59.937Z,1030.04
2018-04-19T11:22:59.865Z,1030.01
2018-04-19T11:23:59.945Z,1030.06
2018-04-19T11:25:00.468Z,1030
2018-04-19T11:26:01.437Z,1029.97
2018-04-19T11:26:59.980Z,1029.99
2018-04-19T11:28:01.469Z,1029.97
2018-04-19T11:28:59.878Z,1029.97
2018-04-19T11:29:59.716Z,1029.98
2018-04-19T11:31:00.217Z,1029.94
2018-04-19T11:32:02.392Z,1029.94
2018-04-19T11:33:00.371Z,1029.93
2018-04-19T11:34:00.307Z,1029.93
2018-04-19T11:35:00.435Z,1029.93
2018-04-19T11:36:00.527Z,1029.93
2018-04-19T11:37:00.343Z,1029.9
2018-04-19T11:38:00.213Z,1029.88
2018-04-19T11:39:00.290Z,1029.82
2018-04-19T11:40:00.434Z,1029.81
2018-04-19T11:41:00.258Z,1029.8
2018-04-19T11:42:00.761Z,1029.72
2018-04-19T11:43:00.078Z,1029.76
2018-04-19T11:44:00.713Z,1029.78
2018-04-19T11:45:00.888Z,1029.75
2018-04-19T11:46:00.519Z,1029.7
2018-04-19T11:47:00.448Z,1029.75
2018-04-19T11:48:01.031Z,1029.72
2018-04-19T11:49:00.198Z,1029.74
2018-04-19T11:50:00.196Z,1029.7
2018-04-19T11:51:00.410Z,1029.75
2018-04-19T11:52:01.291Z,1029.72
2018-04-19T11:53:02.193Z,1029.71
2018-04-19T11:54:00.031Z,1029.65
2018-04-19T11:55:00.741Z,1029.64
2018-04-19T11:56:02.743Z,1029.57
2018-04-19T11:57:01.067Z,1029.61
2018-04-19T11:58:00.264Z,1029.64
2018-04-19T11:58:59.835Z,1029.6
2018-04-19T12:00:01.191Z,1029.61
2018-04-19T12:01:00.156Z,1029.53
2018-04-19T12:01:59.838Z,1029.56
2018-04-19T12:03:00.137Z,1029.49
2018-04-19T12:03:59.925Z,1029.48
2018-04-19T12:04:59.898Z,1029.51
2018-04-19T12:06:00.176Z,1029.54
2018-04-19T12:06:59.822Z,1029.54
2018-04-19T12:08:00.022Z,1029.5